Time;durP1;ratioP1;P1;durP2;ratioP2;P2;SDS_P1;SDS_P2;PMS_P1;PMS_P2;Temp;Humidity;BMP_temperature;BMP_pressure;BME280_temperature;BME280_humidity;BME280_pressure;Samples;Min_cycle;Max_cycle;Signal;HPM_P1;HPM_P2
2022/03/13 00:00:49;;;;;;;33.05;19.65;;;;;;;;;;4937507;29;20062;-68
2022/03/13 00:03:19;;;;;;;30.88;18.73;;;;;;;;;;4937480;29;20506;-68
2022/03/13 00:05:48;;;;;;;29.40;19.33;;;;;;;;;;4937221;29;20055;-68
2022/03/13 00:08:23;;;;;;;30.23;18.80;;;;;;;;;;4936484;29;20067;-68
2022/03/13 00:11:14;;;;;;;30.80;20.08;;;;;;;;;;4935796;29;20056;-68
2022/03/13 00:13:48;;;;;;;29.13;19.52;;;;;;;;;;4936300;29;20079;-68
2022/03/13 00:16:15;;;;;;;34.28;20.05;;;;;;;;;;4937302;29;20055;-68
2022/03/13 00:18:44;;;;;;;33.08;19.30;;;;;;;;;;4935850;29;20056;-68
2022/03/13 00:21:11;;;;;;;31.38;18.80;;;;;;;;;;4937249;29;20059;-68
2022/03/13 00:23:38;;;;;;;29.38;17.23;;;;;;;;;;4937235;29;20070;-68
2022/03/13 00:26:04;;;;;;;30.95;18.77;;;;;;;;;;4937193;29;20052;-68
2022/03/13 00:28:31;;;;;;;28.52;18.83;;;;;;;;;;4937181;29;20051;-68
2022/03/13 00:30:58;;;;;;;30.95;19.08;;;;;;;;;;4935292;29;20055;-68
2022/03/13 00:33:25;;;;;;;35.60;20.05;;;;;;;;;;4937176;29;20047;-68
2022/03/13 00:35:51;;;;;;;28.33;19.17;;;;;;;;;;4935824;29;20438;-68
2022/03/13 00:38:25;;;;;;;29.58;18.80;;;;;;;;;;4935887;29;20052;-68
2022/03/13 00:40:53;;;;;;;35.17;20.75;;;;;;;;;;4936863;29;20055;-68
2022/03/13 00:43:20;;;;;;;35.05;19.70;;;;;;;;;;4936669;29;20075;-68
2022/03/13 00:45:47;;;;;;;34.45;19.50;;;;;;;;;;4936926;29;20453;-68
2022/03/13 00:48:14;;;;;;;35.30;20.25;;;;;;;;;;4920060;29;20051;-69
2022/03/13 00:50:41;;;;;;;29.83;19.42;;;;;;;;;;4935196;29;20494;-68
2022/03/13 00:53:08;;;;;;;31.33;20.25;;;;;;;;;;4920075;29;20107;-68
2022/03/13 00:55:34;;;;;;;34.65;19.50;;;;;;;;;;4919707;29;20047;-68
2022/03/13 00:58:01;;;;;;;36.50;20.10;;;;;;;;;;4919820;29;20079;-68
2022/03/13 01:00:28;;;;;;;34.53;20.35;;;;;;;;;;4936342;29;20111;-68
2022/03/13 01:02:55;;;;;;;36.13;20.55;;;;;;;;;;4936829;29;20059;-68
2022/03/13 01:05:23;;;;;;;32.08;20.48;;;;;;;;;;4935507;29;20479;-68
2022/03/13 01:07:51;;;;;;;29.00;18.38;;;;;;;;;;4919805;29;20052;-68
2022/03/13 01:10:18;;;;;;;31.98;19.92;;;;;;;;;;4935045;29;20466;-68
2022/03/13 01:12:44;;;;;;;34.40;19.77;;;;;;;;;;4935010;29;20107;-68
2022/03/13 01:15:11;;;;;;;34.83;19.30;;;;;;;;;;4936350;29;20048;-68
2022/03/13 01:17:38;;;;;;;33.08;20.17;;;;;;;;;;4936107;29;20056;-68
2022/03/13 01:20:05;;;;;;;30.10;18.92;;;;;;;;;;4936160;29;20051;-68
2022/03/13 01:22:32;;;;;;;30.52;18.45;;;;;;;;;;4919181;29;20055;-68
2022/03/13 01:24:59;;;;;;;32.92;19.65;;;;;;;;;;4934842;29;20474;-68
2022/03/13 01:27:25;;;;;;;29.13;19.90;;;;;;;;;;4935909;29;20055;-68
2022/03/13 01:29:52;;;;;;;35.42;21.27;;;;;;;;;;4935953;29;20470;-68
2022/03/13 01:32:18;;;;;;;41.88;23.85;;;;;;;;;;4935877;29;20111;-68
2022/03/13 01:34:47;;;;;;;37.50;20.90;;;;;;;;;;4935902;29;20048;-68
2022/03/13 01:37:18;;;;;;;41.65;20.55;;;;;;;;;;4934806;29;20081;-68
2022/03/13 01:39:45;;;;;;;36.50;20.05;;;;;;;;;;4918996;29;20044;-69
2022/03/13 01:42:12;;;;;;;30.98;18.85;;;;;;;;;;4935779;29;20047;-68
2022/03/13 01:44:39;;;;;;;31.73;18.63;;;;;;;;;;4935150;29;20052;-68
2022/03/13 01:47:06;;;;;;;25.83;16.90;;;;;;;;;;4935457;29;20103;-68
2022/03/13 01:49:33;;;;;;;30.95;18.50;;;;;;;;;;4934123;29;20080;-68
2022/03/13 01:52:01;;;;;;;29.85;18.17;;;;;;;;;;4934467;29;20055;-68
2022/03/13 01:54:30;;;;;;;29.27;17.90;;;;;;;;;;4935380;29;20055;-68
2022/03/13 01:56:59;;;;;;;27.75;17.58;;;;;;;;;;4935991;29;20052;-68
2022/03/13 01:59:27;;;;;;;32.13;19.80;;;;;;;;;;4934150;29;20345;-68
2022/03/13 02:01:55;;;;;;;29.25;17.63;;;;;;;;;;4935449;29;20099;-68
2022/03/13 02:04:24;;;;;;;32.72;18.88;;;;;;;;;;4934119;29;20055;-68
2022/03/13 02:06:53;;;;;;;27.58;17.45;;;;;;;;;;4933999;29;20047;-68
2022/03/13 02:09:19;;;;;;;29.00;17.33;;;;;;;;;;4934053;29;20204;-68
2022/03/13 02:11:49;;;;;;;29.35;16.80;;;;;;;;;;4934049;29;20106;-68
2022/03/13 02:14:17;;;;;;;28.98;17.08;;;;;;;;;;4935328;29;20048;-68
2022/03/13 02:16:44;;;;;;;26.35;16.83;;;;;;;;;;4935100;29;20055;-68
2022/03/13 02:19:11;;;;;;;25.70;15.95;;;;;;;;;;4934675;29;20495;-68
2022/03/13 02:21:39;;;;;;;25.67;16.75;;;;;;;;;;4934959;29;20123;-68
2022/03/13 02:24:14;;;;;;;23.63;15.13;;;;;;;;;;4935114;29;20111;-68
2022/03/13 02:26:44;;;;;;;27.20;15.30;;;;;;;;;;4933781;29;20109;-68
2022/03/13 02:29:13;;;;;;;25.27;15.10;;;;;;;;;;4919968;29;20048;-68
2022/03/13 02:31:40;;;;;;;26.33;14.30;;;;;;;;;;4934609;29;20052;-68
2022/03/13 02:34:12;;;;;;;29.20;13.55;;;;;;;;;;4918704;29;20057;-68
2022/03/13 02:36:42;;;;;;;21.55;13.95;;;;;;;;;;4933575;29;20043;-68
2022/03/13 02:39:09;;;;;;;18.50;12.18;;;;;;;;;;4934823;29;20055;-68
2022/03/13 02:41:37;;;;;;;24.38;13.80;;;;;;;;;;4933294;29;20102;-68
2022/03/13 02:44:06;;;;;;;21.83;13.85;;;;;;;;;;4933423;29;20051;-68
2022/03/13 02:46:48;;;;;;;17.25;12.00;;;;;;;;;;4933435;29;20509;-68
2022/03/13 02:49:17;;;;;;;20.75;11.95;;;;;;;;;;4934610;29;20058;-68
2022/03/13 02:51:44;;;;;;;20.95;11.73;;;;;;;;;;4933126;29;20109;-68
2022/03/13 02:54:13;;;;;;;19.80;13.05;;;;;;;;;;4933442;29;20107;-68
2022/03/13 02:56:39;;;;;;;21.00;12.23;;;;;;;;;;4916683;29;20047;-68
2022/03/13 02:59:06;;;;;;;16.30;11.57;;;;;;;;;;4933504;29;20470;-68
2022/03/13 03:01:33;;;;;;;17.80;10.85;;;;;;;;;;4934355;29;20052;-68
2022/03/13 03:04:00;;;;;;;19.00;10.63;;;;;;;;;;4934788;29;20131;-68
2022/03/13 03:06:31;;;;;;;15.82;11.07;;;;;;;;;;4917567;29;20051;-68
2022/03/13 03:09:02;;;;;;;16.83;11.18;;;;;;;;;;4934276;29;20470;-68
2022/03/13 03:11:29;;;;;;;20.92;11.75;;;;;;;;;;4956177;23;20056;-73
2022/03/13 03:13:56;;;;;;;20.60;11.40;;;;;;;;;;4933820;29;20043;-73
2022/03/13 03:16:23;;;;;;;20.45;11.82;;;;;;;;;;4934368;29;20051;-73
2022/03/13 03:18:49;;;;;;;19.65;11.95;;;;;;;;;;4934334;29;20524;-73
2022/03/13 03:21:16;;;;;;;19.85;12.20;;;;;;;;;;4934165;29;20554;-73
2022/03/13 03:23:43;;;;;;;19.63;12.20;;;;;;;;;;4934272;29;20062;-73
2022/03/13 03:26:09;;;;;;;17.67;12.35;;;;;;;;;;4934078;29;20455;-73
2022/03/13 03:28:36;;;;;;;21.60;12.23;;;;;;;;;;4934598;29;20098;-73
2022/03/13 03:31:03;;;;;;;20.55;12.73;;;;;;;;;;4934292;29;20051;-73
2022/03/13 03:37:16;;;;;;;23.02;13.13;;;;;;;;;;4934349;29;20050;-73
2022/03/13 03:39:43;;;;;;;20.05;13.48;;;;;;;;;;4917189;29;20142;-74
2022/03/13 03:42:10;;;;;;;20.50;12.48;;;;;;;;;;4933964;29;20119;-73
2022/03/13 03:44:36;;;;;;;20.65;12.48;;;;;;;;;;4934300;29;20471;-73
2022/03/13 03:47:03;;;;;;;21.35;12.32;;;;;;;;;;4934026;29;20047;-73
2022/03/13 03:49:29;;;;;;;19.88;12.77;;;;;;;;;;4933918;29;20056;-74
2022/03/13 03:51:56;;;;;;;19.48;13.10;;;;;;;;;;4933944;29;20053;-73
2022/03/13 03:54:23;;;;;;;19.05;12.65;;;;;;;;;;4934190;29;20063;-73
2022/03/13 03:56:49;;;;;;;19.80;13.20;;;;;;;;;;4933862;29;20115;-73
2022/03/13 03:59:19;;;;;;;18.00;12.23;;;;;;;;;;4933987;29;20503;-73
2022/03/13 04:01:46;;;;;;;16.25;10.95;;;;;;;;;;4934091;29;20115;-73
2022/03/13 04:04:16;;;;;;;17.88;10.80;;;;;;;;;;4934256;29;20067;-73
2022/03/13 04:06:43;;;;;;;17.73;10.60;;;;;;;;;;4933980;29;20083;-74
2022/03/13 04:09:10;;;;;;;18.25;10.93;;;;;;;;;;4937374;29;20466;-74
2022/03/13 04:11:37;;;;;;;18.95;10.88;;;;;;;;;;4935739;29;20056;-73
2022/03/13 04:14:04;;;;;;;16.63;10.18;;;;;;;;;;4937216;29;20055;-74
2022/03/13 04:16:31;;;;;;;14.70;9.30;;;;;;;;;;4937315;29;20075;-73
2022/03/13 04:18:58;;;;;;;16.02;10.27;;;;;;;;;;4936343;29;20110;-73
2022/03/13 04:21:25;;;;;;;16.73;9.52;;;;;;;;;;4937090;29;20048;-73
2022/03/13 04:23:51;;;;;;;15.23;10.60;;;;;;;;;;4937334;29;20051;-73
2022/03/13 04:26:18;;;;;;;14.88;10.07;;;;;;;;;;4936812;29;20103;-73
2022/03/13 04:28:45;;;;;;;18.52;11.23;;;;;;;;;;4937569;29;20130;-73
2022/03/13 04:31:13;;;;;;;16.85;12.10;;;;;;;;;;4935631;29;20499;-73
2022/03/13 04:33:40;;;;;;;16.33;10.65;;;;;;;;;;4936955;29;20507;-73
2022/03/13 04:36:12;;;;;;;18.20;11.90;;;;;;;;;;4937023;29;20192;-73
2022/03/13 04:38:40;;;;;;;22.98;12.73;;;;;;;;;;4937066;29;20059;-73
2022/03/13 04:41:07;;;;;;;22.85;12.85;;;;;;;;;;4936504;29;20051;-73
2022/03/13 04:43:34;;;;;;;19.95;11.77;;;;;;;;;;4936894;29;20470;-73
2022/03/13 04:46:01;;;;;;;22.13;12.07;;;;;;;;;;4937025;29;20052;-73
2022/03/13 04:48:28;;;;;;;21.80;12.13;;;;;;;;;;4936833;29;20510;-74
2022/03/13 04:50:54;;;;;;;25.48;12.65;;;;;;;;;;4936368;29;20470;-73
2022/03/13 04:53:21;;;;;;;23.67;12.70;;;;;;;;;;4935411;29;20052;-74
2022/03/13 04:55:47;;;;;;;24.27;13.32;;;;;;;;;;4936453;29;20052;-73
2022/03/13 04:58:14;;;;;;;23.60;12.90;;;;;;;;;;4917844;29;20058;-73
2022/03/13 05:00:41;;;;;;;19.23;11.60;;;;;;;;;;4916604;29;20052;-74
2022/03/13 05:03:10;;;;;;;18.48;11.75;;;;;;;;;;4917583;29;20059;-73
2022/03/13 05:05:37;;;;;;;22.73;11.90;;;;;;;;;;4928312;29;20135;-73
2022/03/13 05:08:05;;;;;;;19.42;11.18;;;;;;;;;;4936232;29;20463;-73
2022/03/13 05:10:39;;;;;;;19.35;11.77;;;;;;;;;;4938743;29;20076;-73
2022/03/13 05:13:07;;;;;;;20.92;11.70;;;;;;;;;;4928936;29;20048;-73
2022/03/13 05:15:34;;;;;;;19.98;11.52;;;;;;;;;;4930839;29;20051;-73
2022/03/13 05:18:01;;;;;;;17.95;11.15;;;;;;;;;;4936592;29;20051;-73
2022/03/13 05:20:28;;;;;;;24.05;12.75;;;;;;;;;;4935381;29;20051;-73
2022/03/13 05:22:55;;;;;;;22.00;12.52;;;;;;;;;;4919557;29;20566;-73
2022/03/13 05:25:25;;;;;;;20.80;12.68;;;;;;;;;;4936673;29;20059;-73
2022/03/13 05:27:51;;;;;;;24.42;13.55;;;;;;;;;;4935302;29;20536;-73
2022/03/13 05:30:20;;;;;;;22.25;12.52;;;;;;;;;;4935823;29;20099;-73
2022/03/13 05:32:47;;;;;;;19.75;11.95;;;;;;;;;;4936245;29;20062;-73
2022/03/13 05:35:15;;;;;;;23.38;12.10;;;;;;;;;;4936099;29;20076;-73
2022/03/13 05:37:42;;;;;;;21.13;12.70;;;;;;;;;;4935034;29;20495;-73
2022/03/13 05:40:14;;;;;;;21.60;12.13;;;;;;;;;;4936190;29;20086;-73
2022/03/13 05:42:43;;;;;;;20.00;12.32;;;;;;;;;;4934931;29;20051;-73
2022/03/13 05:45:13;;;;;;;21.10;11.13;;;;;;;;;;4934982;29;20055;-73
2022/03/13 05:47:45;;;;;;;16.20;10.45;;;;;;;;;;4936044;29;20056;-73
2022/03/13 05:50:13;;;;;;;13.77;9.50;;;;;;;;;;4936061;29;20055;-73
2022/03/13 05:52:41;;;;;;;18.25;11.02;;;;;;;;;;4934988;29;20084;-73
2022/03/13 05:55:08;;;;;;;16.25;10.18;;;;;;;;;;4935827;29;20502;-73
2022/03/13 05:57:35;;;;;;;15.63;9.73;;;;;;;;;;4935878;29;20111;-73
2022/03/13 06:00:11;;;;;;;16.67;10.23;;;;;;;;;;4935522;29;20426;-73
2022/03/13 06:02:40;;;;;;;16.52;9.63;;;;;;;;;;4935790;29;20052;-74
2022/03/13 06:05:09;;;;;;;13.52;9.15;;;;;;;;;;4935958;29;20058;-73
2022/03/13 06:07:36;;;;;;;16.42;10.55;;;;;;;;;;4935653;29;20052;-73
2022/03/13 06:10:04;;;;;;;14.93;9.65;;;;;;;;;;4935199;29;20123;-73
2022/03/13 06:12:32;;;;;;;14.15;9.20;;;;;;;;;;4934317;29;20110;-73
2022/03/13 06:14:59;;;;;;;14.55;9.20;;;;;;;;;;4918462;29;20438;-73
2022/03/13 06:17:26;;;;;;;14.18;9.43;;;;;;;;;;4935504;29;20499;-73
2022/03/13 06:19:55;;;;;;;14.70;9.57;;;;;;;;;;4935291;29;20055;-73
2022/03/13 06:22:24;;;;;;;17.50;9.60;;;;;;;;;;4935102;29;20060;-73
2022/03/13 06:24:53;;;;;;;16.23;8.80;;;;;;;;;;4935506;29;20051;-74
2022/03/13 06:27:22;;;;;;;13.40;8.65;;;;;;;;;;4935498;29;20407;-73
2022/03/13 06:29:48;;;;;;;13.50;9.25;;;;;;;;;;4934264;29;20467;-73
2022/03/13 06:32:15;;;;;;;14.88;8.73;;;;;;;;;;4934000;29;20051;-73
2022/03/13 06:34:43;;;;;;;13.20;8.13;;;;;;;;;;4935614;29;20471;-73
2022/03/13 06:37:10;;;;;;;11.60;8.20;;;;;;;;;;4937050;29;20095;-73
2022/03/13 06:39:36;;;;;;;13.40;7.97;;;;;;;;;;4935559;29;20546;-74
2022/03/13 06:42:03;;;;;;;13.15;8.40;;;;;;;;;;4935569;29;20048;-73
2022/03/13 06:44:30;;;;;;;14.15;8.23;;;;;;;;;;4935373;29;20102;-73
2022/03/13 06:46:57;;;;;;;13.40;9.15;;;;;;;;;;4935429;29;20078;-72
2022/03/13 06:49:23;;;;;;;13.30;8.38;;;;;;;;;;4934975;29;20056;-73
2022/03/13 06:51:50;;;;;;;12.82;8.05;;;;;;;;;;4935099;29;20430;-74
2022/03/13 06:54:17;;;;;;;17.60;8.40;;;;;;;;;;4934356;29;20381;-74
2022/03/13 06:56:44;;;;;;;11.85;8.25;;;;;;;;;;4931548;29;20491;-73
2022/03/13 06:59:11;;;;;;;12.23;8.05;;;;;;;;;;4933189;29;20051;-72
2022/03/13 07:01:40;;;;;;;12.95;7.68;;;;;;;;;;4932526;29;20056;-72
2022/03/13 07:04:07;;;;;;;14.00;7.95;;;;;;;;;;4932886;29;20051;-72
2022/03/13 07:06:34;;;;;;;12.85;8.15;;;;;;;;;;4932782;29;20058;-72
2022/03/13 07:09:00;;;;;;;11.65;8.10;;;;;;;;;;4932192;29;20083;-72
2022/03/13 07:11:27;;;;;;;13.73;8.15;;;;;;;;;;4932741;29;20091;-73
2022/03/13 07:13:53;;;;;;;12.50;7.65;;;;;;;;;;4932926;29;20518;-73
2022/03/13 07:16:20;;;;;;;12.20;8.77;;;;;;;;;;4932644;29;20463;-73
2022/03/13 07:18:47;;;;;;;11.02;6.93;;;;;;;;;;4932852;29;20056;-72
2022/03/13 07:21:14;;;;;;;10.88;7.60;;;;;;;;;;4933046;29;20474;-72
2022/03/13 07:23:40;;;;;;;13.05;7.80;;;;;;;;;;4933450;29;20111;-72
2022/03/13 07:26:07;;;;;;;12.68;7.50;;;;;;;;;;4933787;29;20093;-72
2022/03/13 07:28:34;;;;;;;13.88;6.93;;;;;;;;;;4934166;29;20107;-73
2022/03/13 07:31:00;;;;;;;12.38;6.85;;;;;;;;;;4932713;29;20524;-73
2022/03/13 07:33:27;;;;;;;12.80;6.90;;;;;;;;;;4933448;29;20060;-73
2022/03/13 07:35:55;;;;;;;11.23;6.15;;;;;;;;;;4932576;29;20519;-72
2022/03/13 07:38:22;;;;;;;10.43;6.68;;;;;;;;;;4933525;29;20102;-74
2022/03/13 07:40:49;;;;;;;13.07;6.63;;;;;;;;;;4933443;29;20047;-74
2022/03/13 07:43:17;;;;;;;10.77;6.90;;;;;;;;;;4935426;29;20060;-74
2022/03/13 07:45:43;;;;;;;7.90;6.05;;;;;;;;;;4937278;29;20431;-74
2022/03/13 07:48:10;;;;;;;9.82;6.60;;;;;;;;;;4936146;29;20078;-73
2022/03/13 07:50:37;;;;;;;10.02;6.75;;;;;;;;;;4934587;29;20066;-73
2022/03/13 07:53:04;;;;;;;10.57;6.78;;;;;;;;;;4936072;29;20079;-73
2022/03/13 07:55:31;;;;;;;10.07;6.80;;;;;;;;;;4926125;29;20048;-68
2022/03/13 07:57:58;;;;;;;12.48;7.25;;;;;;;;;;4927956;29;20083;-69
2022/03/13 08:00:25;;;;;;;10.45;7.22;;;;;;;;;;4924090;29;20052;-69
2022/03/13 08:02:54;;;;;;;12.57;6.53;;;;;;;;;;4927780;29;20099;-70
2022/03/13 08:05:24;;;;;;;12.23;7.40;;;;;;;;;;4923228;29;20086;-71
2022/03/13 08:07:52;;;;;;;14.90;8.05;;;;;;;;;;4923108;29;20052;-71
2022/03/13 08:10:21;;;;;;;9.23;7.13;;;;;;;;;;4923177;29;20371;-69
2022/03/13 08:12:48;;;;;;;12.98;7.70;;;;;;;;;;4924088;29;20439;-69
2022/03/13 08:15:15;;;;;;;13.15;7.95;;;;;;;;;;4927398;29;20052;-69
2022/03/13 08:17:42;;;;;;;10.82;7.18;;;;;;;;;;4922461;29;20047;-68
2022/03/13 08:20:10;;;;;;;11.27;8.20;;;;;;;;;;4930702;29;20044;-69
2022/03/13 08:22:37;;;;;;;15.55;7.78;;;;;;;;;;4924194;29;20056;-70
2022/03/13 08:25:05;;;;;;;12.13;7.82;;;;;;;;;;4922485;29;20055;-70
2022/03/13 08:27:33;;;;;;;10.93;7.85;;;;;;;;;;4921488;29;20079;-69
2022/03/13 08:30:00;;;;;;;11.15;7.75;;;;;;;;;;4921430;29;20492;-74
2022/03/13 08:32:27;;;;;;;16.48;9.07;;;;;;;;;;4922194;29;20059;-71
2022/03/13 08:34:54;;;;;;;13.48;8.70;;;;;;;;;;4921805;29;20103;-70
2022/03/13 08:37:21;;;;;;;15.52;9.95;;;;;;;;;;4923319;29;20639;-69
2022/03/13 08:39:47;;;;;;;14.82;9.13;;;;;;;;;;4923928;29;20415;-67
2022/03/13 08:42:14;;;;;;;15.63;9.20;;;;;;;;;;4921269;29;20056;-70
2022/03/13 08:44:41;;;;;;;12.55;8.82;;;;;;;;;;4927843;29;20504;-70
2022/03/13 08:47:08;;;;;;;13.75;8.68;;;;;;;;;;4926397;29;20059;-70
2022/03/13 08:49:34;;;;;;;12.65;8.85;;;;;;;;;;4929208;29;20495;-70
2022/03/13 08:52:01;;;;;;;14.82;8.75;;;;;;;;;;4930119;29;20052;-70
2022/03/13 08:54:28;;;;;;;13.38;8.82;;;;;;;;;;4929980;29;20126;-71
2022/03/13 08:56:54;;;;;;;12.45;9.48;;;;;;;;;;4913554;29;20048;-72
2022/03/13 08:59:21;;;;;;;15.57;9.02;;;;;;;;;;4908994;29;20129;-72
2022/03/13 09:01:48;;;;;;;14.98;9.48;;;;;;;;;;4908066;29;20048;-71
2022/03/13 09:04:15;;;;;;;15.63;9.60;;;;;;;;;;4903406;29;20091;-71
2022/03/13 09:06:43;;;;;;;15.70;9.40;;;;;;;;;;4905285;29;20092;-71
2022/03/13 09:09:10;;;;;;;14.82;9.90;;;;;;;;;;4904154;29;20527;-71
2022/03/13 09:11:37;;;;;;;17.40;10.70;;;;;;;;;;4904933;29;20515;-71
2022/03/13 09:14:04;;;;;;;19.02;9.73;;;;;;;;;;4904384;29;20107;-71
2022/03/13 09:16:32;;;;;;;14.10;9.43;;;;;;;;;;4907723;29;20460;-71
2022/03/13 09:18:59;;;;;;;15.57;9.65;;;;;;;;;;4904270;29;20082;-70
2022/03/13 09:21:26;;;;;;;16.13;9.40;;;;;;;;;;4909934;29;20052;-71
2022/03/13 09:23:52;;;;;;;17.48;10.43;;;;;;;;;;4908706;29;20112;-70
2022/03/13 09:26:19;;;;;;;19.00;11.15;;;;;;;;;;4904270;29;20572;-71
2022/03/13 09:28:46;;;;;;;18.60;10.30;;;;;;;;;;4908691;29;20111;-71
2022/03/13 09:31:12;;;;;;;16.13;10.90;;;;;;;;;;4906523;29;20068;-71
2022/03/13 09:33:39;;;;;;;16.60;10.75;;;;;;;;;;4904357;29;20060;-71
2022/03/13 09:36:06;;;;;;;18.73;10.82;;;;;;;;;;4904743;29;20049;-71
2022/03/13 09:38:32;;;;;;;19.77;12.07;;;;;;;;;;4912936;29;20044;-71
2022/03/13 09:40:59;;;;;;;18.45;11.27;;;;;;;;;;4905091;29;20063;-71
2022/03/13 09:43:26;;;;;;;17.88;10.77;;;;;;;;;;4906955;29;20521;-71
2022/03/13 09:45:53;;;;;;;18.17;12.20;;;;;;;;;;4904231;29;20056;-71
2022/03/13 09:48:20;;;;;;;19.33;11.70;;;;;;;;;;4908621;29;20516;-70
2022/03/13 09:50:47;;;;;;;16.67;10.95;;;;;;;;;;4909480;29;20056;-70
2022/03/13 09:53:14;;;;;;;18.75;11.18;;;;;;;;;;4903555;29;20059;-71
2022/03/13 09:55:41;;;;;;;22.00;12.35;;;;;;;;;;4904224;29;20123;-71
2022/03/13 09:58:08;;;;;;;19.80;10.93;;;;;;;;;;4921049;29;20040;-71
2022/03/13 10:00:36;;;;;;;19.15;12.18;;;;;;;;;;4909176;29;20139;-71
2022/03/13 10:03:08;;;;;;;18.15;11.70;;;;;;;;;;4902906;29;20055;-71
2022/03/13 10:05:47;;;;;;;20.25;11.85;;;;;;;;;;4904160;29;20468;-71
2022/03/13 10:08:14;;;;;;;19.65;11.95;;;;;;;;;;4912894;29;20052;-70
2022/03/13 10:10:42;;;;;;;17.50;11.70;;;;;;;;;;4907146;29;20428;-69
2022/03/13 10:13:09;;;;;;;20.85;12.38;;;;;;;;;;4904849;29;20052;-70
2022/03/13 10:15:41;;;;;;;16.73;11.90;;;;;;;;;;4905527;29;20061;-70
2022/03/13 10:18:12;;;;;;;20.45;12.88;;;;;;;;;;4906371;29;20131;-70
2022/03/13 10:20:41;;;;;;;19.60;12.98;;;;;;;;;;4903158;29;20079;-70
2022/03/13 10:23:11;;;;;;;23.00;13.30;;;;;;;;;;4905558;29;20048;-69
2022/03/13 10:25:40;;;;;;;23.25;13.27;;;;;;;;;;4906354;29;20056;-68
2022/03/13 10:28:34;;;;;;;19.73;12.38;;;;;;;;;;4911519;29;20096;-67
2022/03/13 10:31:04;;;;;;;23.05;13.82;;;;;;;;;;4909717;29;20456;-69
2022/03/13 10:33:54;;;;;;;21.25;13.50;;;;;;;;;;4911362;29;20456;-66
2022/03/13 10:36:31;;;;;;;20.75;13.02;;;;;;;;;;4912144;29;20056;-69
2022/03/13 10:39:00;;;;;;;18.38;12.95;;;;;;;;;;4908669;29;20052;-67
2022/03/13 10:41:43;;;;;;;21.83;13.73;;;;;;;;;;4911131;29;20427;-67
2022/03/13 10:44:14;;;;;;;23.98;13.75;;;;;;;;;;4911485;29;20091;-66
2022/03/13 10:46:42;;;;;;;23.38;14.77;;;;;;;;;;4908682;29;20107;-68
2022/03/13 10:49:09;;;;;;;20.58;13.60;;;;;;;;;;4911480;29;20400;-66
2022/03/13 10:51:45;;;;;;;22.10;12.93;;;;;;;;;;4911950;29;20099;-65
2022/03/13 10:54:46;;;;;;;21.88;13.45;;;;;;;;;;4913115;29;20241;-67
2022/03/13 10:57:13;;;;;;;19.80;12.80;;;;;;;;;;4873878;29;20579;-66
2022/03/13 10:59:41;;;;;;;20.08;13.32;;;;;;;;;;4909809;29;20492;-67
2022/03/13 11:02:18;;;;;;;18.63;12.02;;;;;;;;;;4912642;29;20051;-68
2022/03/13 11:04:51;;;;;;;22.65;13.07;;;;;;;;;;4903274;29;20481;-68
2022/03/13 11:07:20;;;;;;;23.80;15.15;;;;;;;;;;4904397;29;20101;-66
2022/03/13 11:09:48;;;;;;;22.58;15.00;;;;;;;;;;4900046;29;20578;-74
2022/03/13 11:12:20;;;;;;;22.25;15.25;;;;;;;;;;4889523;29;20045;-68
2022/03/13 11:14:58;;;;;;;27.00;16.45;;;;;;;;;;4922557;29;20044;-67
2022/03/13 11:17:32;;;;;;;27.70;17.52;;;;;;;;;;4907172;29;20103;-67
2022/03/13 11:20:09;;;;;;;30.67;17.75;;;;;;;;;;4918139;29;20112;-68
2022/03/13 11:22:37;;;;;;;27.42;17.70;;;;;;;;;;4908695;29;20108;-66
2022/03/13 11:25:06;;;;;;;25.98;16.20;;;;;;;;;;4905904;29;20092;-71
2022/03/13 11:27:35;;;;;;;23.05;15.80;;;;;;;;;;4914734;29;20048;-71
2022/03/13 11:30:06;;;;;;;22.20;15.57;;;;;;;;;;4893695;29;20052;-71
2022/03/13 11:32:37;;;;;;;27.08;14.88;;;;;;;;;;4905404;29;20048;-68
2022/03/13 11:35:10;;;;;;;27.25;17.60;;;;;;;;;;4907506;29;20056;-67
2022/03/13 11:37:46;;;;;;;27.67;17.48;;;;;;;;;;4907939;29;20044;-67
2022/03/13 11:40:14;;;;;;;23.60;15.88;;;;;;;;;;4906068;29;20057;-67
2022/03/13 11:42:52;;;;;;;24.92;17.10;;;;;;;;;;4903377;29;20061;-66
2022/03/13 11:45:29;;;;;;;23.25;16.42;;;;;;;;;;4904653;29;20084;-67
2022/03/13 11:47:57;;;;;;;28.33;16.63;;;;;;;;;;4905060;29;20052;-67
2022/03/13 11:50:46;;;;;;;23.52;17.42;;;;;;;;;;4905334;29;20575;-67
2022/03/13 11:53:19;;;;;;;26.50;18.02;;;;;;;;;;4907982;29;20059;-67
2022/03/13 11:56:10;;;;;;;25.92;17.23;;;;;;;;;;4902358;29;20138;-67
2022/03/13 11:58:46;;;;;;;26.88;17.38;;;;;;;;;;4903823;29;20490;-67
2022/03/13 12:01:19;;;;;;;25.02;16.98;;;;;;;;;;4905379;29;20057;-67
2022/03/13 12:04:00;;;;;;;23.95;16.33;;;;;;;;;;4896849;29;20736;-73
2022/03/13 12:06:48;;;;;;;23.75;15.95;;;;;;;;;;4906265;29;20477;-73
2022/03/13 12:09:17;;;;;;;23.38;16.17;;;;;;;;;;4914078;29;20056;-72
2022/03/13 12:11:47;;;;;;;24.75;16.23;;;;;;;;;;4904865;29;20061;-73
2022/03/13 12:14:15;;;;;;;24.65;17.02;;;;;;;;;;4907687;29;20053;-70
2022/03/13 12:16:46;;;;;;;24.25;16.27;;;;;;;;;;4904726;29;20057;-71
2022/03/13 12:19:16;;;;;;;25.77;17.02;;;;;;;;;;4906314;29;20059;-72
2022/03/13 12:21:46;;;;;;;24.83;16.80;;;;;;;;;;4905004;29;20523;-70
2022/03/13 12:24:18;;;;;;;24.25;15.55;;;;;;;;;;4907229;29;20520;-72
2022/03/13 12:26:46;;;;;;;24.48;17.05;;;;;;;;;;4908175;29;20059;-75
2022/03/13 12:29:15;;;;;;;23.98;16.33;;;;;;;;;;4904239;29;20501;-74
2022/03/13 12:31:53;;;;;;;24.52;16.50;;;;;;;;;;4907802;29;20111;-69
2022/03/13 12:34:29;;;;;;;25.92;16.50;;;;;;;;;;4905528;29;20135;-72
2022/03/13 12:37:00;;;;;;;28.40;17.10;;;;;;;;;;4906356;29;20048;-73
2022/03/13 12:39:28;;;;;;;26.27;18.00;;;;;;;;;;4913122;29;20536;-69
2022/03/13 12:41:59;;;;;;;25.75;17.10;;;;;;;;;;4906847;29;20507;-72
2022/03/13 12:44:31;;;;;;;24.15;16.35;;;;;;;;;;4908000;29;20056;-73
2022/03/13 12:46:58;;;;;;;23.50;17.35;;;;;;;;;;4891819;29;20056;-75
2022/03/13 12:49:28;;;;;;;23.65;17.90;;;;;;;;;;4904387;29;20570;-73
2022/03/13 12:51:55;;;;;;;23.05;16.00;;;;;;;;;;4907081;29;20116;-72
2022/03/13 12:54:22;;;;;;;26.40;17.55;;;;;;;;;;4904476;29;20057;-72
2022/03/13 12:56:49;;;;;;;24.23;17.60;;;;;;;;;;4909885;29;20427;-64
2022/03/13 12:59:36;;;;;;;22.58;17.08;;;;;;;;;;4903439;29;20123;-68
2022/03/13 13:02:18;;;;;;;22.65;16.48;;;;;;;;;;4905038;29;20052;-66
2022/03/13 13:04:47;;;;;;;21.50;16.67;;;;;;;;;;4901503;29;20529;-64
2022/03/13 13:07:15;;;;;;;23.30;17.38;;;;;;;;;;4905301;29;20064;-64
2022/03/13 13:09:43;;;;;;;24.05;16.33;;;;;;;;;;4902080;29;20481;-63
2022/03/13 13:12:17;;;;;;;22.90;16.77;;;;;;;;;;4901786;29;20060;-67
2022/03/13 13:14:44;;;;;;;23.13;16.20;;;;;;;;;;4903242;29;20053;-68
2022/03/13 13:17:26;;;;;;;20.05;16.05;;;;;;;;;;4903011;29;20082;-67
2022/03/13 13:19:56;;;;;;;;;;;;;;;;;;4902832;29;20084;-67
2022/03/13 13:22:31;;;;;;;22.42;16.13;;;;;;;;;;4901155;29;19946;-67
2022/03/13 13:25:19;;;;;;;20.75;16.40;;;;;;;;;;4902413;29;20051;-67
2022/03/13 13:27:51;;;;;;;22.40;17.30;;;;;;;;;;4904945;29;20108;-68
2022/03/13 13:30:34;;;;;;;22.48;17.85;;;;;;;;;;4901460;29;20103;-68
2022/03/13 13:33:03;;;;;;;20.65;16.63;;;;;;;;;;4904219;29;20123;-67
2022/03/13 13:35:39;;;;;;;21.95;16.75;;;;;;;;;;4902969;29;20567;-67
2022/03/13 13:38:08;;;;;;;22.73;16.33;;;;;;;;;;4900522;29;20117;-67
2022/03/13 13:40:45;;;;;;;21.85;16.20;;;;;;;;;;4900493;29;20048;-67
2022/03/13 13:43:29;;;;;;;24.98;17.48;;;;;;;;;;4906556;29;20056;-68
2022/03/13 13:46:04;;;;;;;20.38;16.90;;;;;;;;;;4902939;29;20111;-68
2022/03/13 13:48:34;;;;;;;20.65;16.90;;;;;;;;;;4905979;29;20461;-67
2022/03/13 13:51:19;;;;;;;21.35;16.85;;;;;;;;;;4905881;29;20052;-67
2022/03/13 13:53:52;;;;;;;21.77;16.88;;;;;;;;;;4907954;29;20061;-68
2022/03/13 13:56:23;;;;;;;19.83;16.25;;;;;;;;;;4902125;29;20060;-67
2022/03/13 13:58:49;;;;;;;22.25;16.80;;;;;;;;;;4904282;29;20044;-67
2022/03/13 14:01:23;;;;;;;21.10;16.55;;;;;;;;;;4902393;29;20052;-68
2022/03/13 14:03:51;;;;;;;22.83;16.98;;;;;;;;;;4905533;29;20060;-68
2022/03/13 14:06:18;;;;;;;21.65;16.35;;;;;;;;;;4905677;29;20510;-67
2022/03/13 14:08:49;;;;;;;21.08;17.13;;;;;;;;;;4905091;29;20044;-68
2022/03/13 14:11:19;;;;;;;22.33;16.80;;;;;;;;;;4904383;29;20064;-68
2022/03/13 14:13:47;;;;;;;22.20;16.92;;;;;;;;;;4902269;29;20116;-68
2022/03/13 14:16:15;;;;;;;23.10;17.23;;;;;;;;;;4903832;29;20051;-68
2022/03/13 14:18:42;;;;;;;19.25;15.45;;;;;;;;;;4902156;29;20075;-69
2022/03/13 14:21:09;;;;;;;21.27;16.13;;;;;;;;;;4906947;29;20048;-68
2022/03/13 14:23:35;;;;;;;21.80;16.95;;;;;;;;;;4902546;29;20056;-68
2022/03/13 14:26:02;;;;;;;22.23;16.55;;;;;;;;;;4907472;29;20052;-67
2022/03/13 14:28:29;;;;;;;22.30;16.35;;;;;;;;;;4905101;29;20049;-69
2022/03/13 14:30:55;;;;;;;18.08;14.45;;;;;;;;;;4902426;29;20550;-68
2022/03/13 14:33:23;;;;;;;21.58;16.05;;;;;;;;;;4903535;29;20051;-67
2022/03/13 14:35:50;;;;;;;20.20;15.20;;;;;;;;;;4902313;29;20052;-67